Time;durP1;ratioP1;P1;durP2;ratioP2;P2;SDS_P1;SDS_P2;PMS_P1;PMS_P2;Temp;Humidity;BMP_temperature;BMP_pressure;BME280_temperature;BME280_humidity;BME280_pressure;Samples;Min_cycle;Max_cycle;Signal;HPM_P1;HPM_P2
2022/05/04 00:02:12;;;;;;;6.03;3.00;;;7.20;1.00;;;;;;10435650;28;20246;-79
2022/05/04 00:07:34;;;;;;;7.13;3.10;;;7.10;1.00;;;;;;10454839;28;20424;-79
2022/05/04 00:12:55;;;;;;;5.10;2.80;;;7.00;1.00;;;;;;10489410;28;20236;-79
2022/05/04 00:18:16;;;;;;;7.10;2.90;;;6.90;1.00;;;;;;10518174;28;20195;-79
2022/05/04 00:23:38;;;;;;;7.57;2.80;;;6.90;1.00;;;;;;10518303;28;20499;-79
2022/05/04 00:28:59;;;;;;;8.47;3.07;;;6.90;1.00;;;;;;10503628;28;20216;-79
2022/05/04 00:34:20;;;;;;;9.90;3.30;;;6.80;1.00;;;;;;10518106;28;20442;-79
2022/05/04 00:39:41;;;;;;;6.47;2.73;;;6.90;1.00;;;;;;10518093;28;20374;-80
2022/05/04 00:45:03;;;;;;;5.20;2.90;;;6.90;1.00;;;;;;10518634;28;20197;-80
2022/05/04 00:50:25;;;;;;;3.93;2.13;;;6.80;1.00;;;;;;10518590;28;20193;-79
2022/05/04 00:55:47;;;;;;;6.20;2.60;;;6.70;1.00;;;;;;10483032;28;20225;-78
2022/05/04 01:01:08;;;;;;;4.67;2.47;;;6.70;1.00;;;;;;10480457;28;20204;-80
2022/05/04 01:06:29;;;;;;;4.73;2.20;;;6.70;1.00;;;;;;10483582;28;20193;-81
2022/05/04 01:11:51;;;;;;;4.97;2.40;;;6.50;1.00;;;;;;10496368;28;20200;-81
2022/05/04 01:17:12;;;;;;;5.13;2.27;;;6.40;1.00;;;;;;10525281;28;20195;-79
2022/05/04 01:22:33;;;;;;;3.43;2.37;;;6.40;1.00;;;;;;10524141;28;20200;-79
2022/05/04 01:27:55;;;;;;;5.53;2.17;;;6.40;1.00;;;;;;10524809;28;20195;-78
2022/05/04 01:33:16;;;;;;;8.37;3.67;;;6.30;1.00;;;;;;10524587;28;20227;-79
2022/05/04 01:38:38;;;;;;;9.27;4.33;;;6.20;1.00;;;;;;10524682;28;20196;-79
2022/05/04 01:43:59;;;;;;;9.27;3.90;;;6.20;1.00;;;;;;10523299;28;20222;-78
2022/05/04 01:49:21;;;;;;;8.03;3.33;;;6.20;1.00;;;;;;10523033;28;20248;-79
2022/05/04 01:54:42;;;;;;;4.83;2.40;;;6.10;1.00;;;;;;10497285;28;20235;-80
2022/05/04 02:00:06;;;;;;;4.53;2.20;;;6.10;1.00;;;;;;10481262;28;20202;-80
2022/05/04 02:05:34;;;;;;;3.93;1.90;;;6.20;1.00;;;;;;10480845;28;20286;-78
2022/05/04 02:10:56;;;;;;;4.77;2.10;;;6.10;1.00;;;;;;10505957;28;20375;-79
2022/05/04 02:16:17;;;;;;;3.60;2.10;;;6.10;1.00;;;;;;10521920;28;20230;-79
2022/05/04 02:21:39;;;;;;;6.03;2.70;;;6.10;1.00;;;;;;10536396;28;20386;-79
2022/05/04 02:27:00;;;;;;;5.77;3.33;;;6.10;1.00;;;;;;10521441;28;20272;-79
2022/05/04 02:32:21;;;;;;;8.17;4.20;;;6.00;1.00;;;;;;10522477;28;20198;-79
2022/05/04 02:37:55;;;;;;;7.67;4.07;;;5.90;1.00;;;;;;10522221;28;20479;-80
2022/05/04 02:43:16;;;;;;;8.07;4.00;;;5.80;1.00;;;;;;10520938;28;20198;-79
2022/05/04 02:48:38;;;;;;;14.73;4.77;;;5.70;1.00;;;;;;10520869;28;20490;-79
2022/05/04 02:53:59;;;;;;;19.77;7.07;;;5.70;1.00;;;;;;10485622;28;20257;-80
2022/05/04 02:59:20;;;;;;;16.03;6.23;;;5.70;1.00;;;;;;10478773;28;20196;-79
2022/05/04 03:04:41;;;;;;;20.33;6.97;;;5.70;1.00;;;;;;10478620;28;20206;-79
2022/05/04 03:10:03;;;;;;;14.77;5.17;;;5.70;1.00;;;;;;10478996;28;20214;-78
2022/05/04 03:15:25;;;;;;;10.20;4.13;;;5.60;1.00;;;;;;10438089;28;20227;-80
2022/05/04 03:20:46;;;;;;;11.77;5.07;;;5.60;1.00;;;;;;10437593;28;20191;-78
2022/05/04 03:26:10;;;;;;;17.70;4.83;;;5.60;99.90;;;;;;10436767;28;20265;-78
2022/05/04 03:31:31;;;;;;;13.33;5.53;;;5.60;99.90;;;;;;10437468;28;20208;-78
2022/05/04 03:36:54;;;;;;;14.77;5.27;;;5.60;99.90;;;;;;10435953;28;20545;-80
2022/05/04 03:42:15;;;;;;;16.00;6.20;;;5.60;99.90;;;;;;10422162;28;20202;-79
2022/05/04 03:47:37;;;;;;;14.90;5.70;;;5.50;99.90;;;;;;10437209;28;20199;-79
2022/05/04 03:52:58;;;;;;;14.30;5.83;;;5.40;99.90;;;;;;10448199;28;20560;-80
2022/05/04 03:58:20;;;;;;;13.63;5.17;;;5.40;99.90;;;;;;10478315;28;20197;-79
2022/05/04 04:03:42;;;;;;;9.00;5.07;;;5.50;99.90;;;;;;10478062;28;20190;-79
2022/05/04 04:09:04;;;;;;;7.50;4.00;;;5.60;99.90;;;;;;10476950;28;20190;-78
2022/05/04 04:14:25;;;;;;;14.83;8.40;;;5.70;55.00;;;;;;10511840;28;20224;-78
2022/05/04 04:21:50;;;;;;;8.87;5.00;;;5.80;1.00;;;;;;10518494;28;20192;-79
2022/05/04 04:25:28;;;;;;;8.17;3.60;;;5.90;1.00;;;;;;10518544;28;20269;-79
2022/05/04 04:30:51;;;;;;;9.90;3.67;;;6.00;1.00;;;;;;10519529;28;20244;-78
2022/05/04 04:36:13;;;;;;;7.60;2.77;;;6.10;1.00;;;;;;10523038;28;20226;-81
2022/05/04 04:41:34;;;;;;;6.73;2.30;;;6.20;1.00;;;;;;10526405;28;20199;-80
2022/05/04 04:46:59;;;;;;;9.07;3.03;;;6.20;99.90;;;;;;10526283;28;20223;-81
2022/05/04 04:52:23;;;;;;;11.50;4.97;;;6.30;99.90;;;;;;10518747;28;20552;-79
2022/05/04 04:57:45;;;;;;;11.50;4.00;;;6.40;1.00;;;;;;10484032;28;20385;-80
2022/05/04 05:03:07;;;;;;;7.63;2.60;;;6.50;1.00;;;;;;10484200;28;20204;-79
2022/05/04 05:08:28;;;;;;;7.20;2.83;;;6.70;99.90;;;;;;10483950;28;20190;-81
2022/05/04 05:19:30;;;;;;;7.00;2.03;;;7.00;1.00;;;;;;10524086;28;20201;-79
2022/05/04 05:24:52;;;;;;;4.50;2.27;;;7.20;1.00;;;;;;10526837;28;20208;-78
2022/05/04 05:30:14;;;;;;;7.40;1.97;;;7.50;54.10;;;;;;10527212;28;20550;-78
2022/05/04 05:35:38;;;;;;;4.17;1.50;;;7.60;99.90;;;;;;10524689;28;20228;-77
2022/05/04 05:41:01;;;;;;;7.13;2.00;;;7.60;65.10;;;;;;10524773;28;20209;-79
2022/05/04 05:46:22;;;;;;;5.37;1.83;;;8.00;1.00;;;;;;10523620;28;20242;-80
2022/05/04 05:51:44;;;;;;;7.17;2.03;;;8.50;1.00;;;;;;10522252;28;20245;-79
2022/05/04 05:57:06;;;;;;;6.93;1.47;;;9.00;1.00;;;;;;10440736;28;20225;-76
2022/05/04 06:02:33;;;;;;;2.97;1.20;;;9.20;99.90;;;;;;10472505;28;20202;-77
2022/05/04 06:07:54;;;;;;;6.20;1.67;;;9.30;1.00;;;;;;10425189;28;20556;-78
2022/05/04 06:13:18;;;;;;;4.47;1.70;;;9.40;1.00;;;;;;10504345;28;20516;-76
2022/05/04 06:18:40;;;;;;;5.60;2.00;;;9.80;1.00;;;;;;10522780;28;20221;-77
2022/05/04 06:24:01;;;;;;;4.47;1.30;;;10.20;99.90;;;;;;10522722;28;20194;-76
2022/05/04 06:34:06;;;;;;;5.13;1.90;;;10.30;99.90;;;;;;10521544;28;20489;-77
2022/05/04 06:35:03;;;;;;;9.60;3.60;;;10.50;43.90;;;;;;10522259;28;20289;-77
2022/05/04 06:40:24;;;;;;;4.67;2.10;;;10.60;1.00;;;;;;10521171;28;20212;-77
2022/05/04 06:45:45;;;;;;;3.87;1.90;;;10.80;1.00;;;;;;10520322;28;20209;-77
2022/05/04 06:51:07;;;;;;;3.67;1.60;;;11.10;1.00;;;;;;10506311;28;20249;-76
2022/05/04 06:56:28;;;;;;;4.30;1.80;;;11.20;1.00;;;;;;10492832;28;20541;-77
2022/05/04 07:01:50;;;;;;;8.87;2.50;;;11.60;1.00;;;;;;10479429;28;20192;-77
2022/05/04 07:07:11;;;;;;;3.78;1.63;;;12.20;1.00;;;;;;10397702;28;20265;-76
2022/05/04 07:12:33;;;;;;;10.07;1.90;;;12.80;99.90;;;;;;10449583;28;20304;-77
2022/05/04 07:17:55;;;;;;;7.43;1.67;;;13.40;99.90;;;;;;10470628;28;20293;-76
2022/05/04 07:23:17;;;;;;;7.03;1.67;;;13.90;99.90;;;;;;10400090;28;20261;-77
2022/05/04 07:28:38;;;;;;;3.60;1.63;;;14.10;93.60;;;;;;10398169;28;20206;-78
2022/05/04 07:34:00;;;;;;;5.78;1.67;;;14.70;99.90;;;;;;10431305;28;20230;-76
2022/05/04 07:45:07;;;;;;;5.07;1.25;;;14.50;26.80;;;;;;10389289;28;20279;-79
2022/05/04 07:50:28;;;;;;;7.38;1.50;;;14.10;1.00;;;;;;10389646;28;20204;-77
2022/05/04 07:55:50;;;;;;;7.70;1.42;;;14.10;1.00;;;;;;10424915;28;20226;-78
2022/05/04 08:06:51;;;;;;;2.42;1.42;;;15.20;20.20;;;;;;10430702;28;20238;-79
2022/05/04 08:12:13;;;;;;;3.70;1.25;;;15.80;8.70;;;;;;10435848;28;20492;-82
2022/05/04 08:17:34;;;;;;;3.63;1.50;;;16.40;1.00;;;;;;10480622;28;20239;-78
2022/05/04 08:22:57;;;;;;;7.07;1.13;;;17.20;1.00;;;;;;10399096;28;20210;-76
2022/05/04 08:28:19;;;;;;;4.10;1.00;;;17.40;1.00;;;;;;10396843;28;20284;-82
2022/05/04 08:33:40;;;;;;;3.75;1.25;;;17.40;1.00;;;;;;10397792;28;20227;-80
2022/05/04 08:39:01;;;;;;;2.53;1.20;;;17.50;1.00;;;;;;10411392;28;20247;-79
2022/05/04 08:44:24;;;;;;;2.13;1.23;;;17.40;1.00;;;;;;10398045;28;20229;-82
2022/05/04 08:49:47;;;;;;;5.43;1.38;;;18.30;1.00;;;;;;10426297;28;20193;-85
2022/05/04 08:55:10;;;;;;;3.97;1.00;;;18.90;1.00;;;;;;10425230;28;20252;-85
2022/05/04 09:00:32;;;;;;;3.75;1.50;;;18.90;1.00;;;;;;10438072;28;20212;-80
2022/05/04 09:05:54;;;;;;;4.00;1.20;;;18.70;1.00;;;;;;10422856;28;20430;-80
2022/05/04 09:11:29;;;;;;;5.47;1.33;;;19.10;1.00;;;;;;10450024;28;20405;-81
2022/05/04 09:16:50;;;;;;;2.70;0.88;;;19.40;1.00;;;;;;10396463;28;20255;-79
2022/05/04 09:22:16;;;;;;;1.63;1.00;;;19.00;1.00;;;;;;10395832;28;20197;-80
2022/05/04 09:27:39;;;;;;;7.30;1.10;;;19.00;1.00;;;;;;10394675;28;20201;-81
2022/05/04 09:33:02;;;;;;;2.28;1.08;;;18.90;1.00;;;;;;10394639;28;20213;-79
2022/05/04 09:49:49;;;;;;;1.58;1.00;;;20.50;1.00;;;;;;10395107;28;20364;-80
2022/05/04 09:55:25;;;;;;;3.65;1.27;;;20.20;1.00;;;;;;10421994;28;20247;-84
2022/05/04 10:00:46;;;;;;;5.78;1.20;;;20.40;1.00;;;;;;10435938;28;20387;-79
2022/05/04 10:06:08;;;;;;;3.25;1.00;;;20.50;1.00;;;;;;10434104;28;20214;-80
2022/05/04 10:11:30;;;;;;;4.82;1.10;;;20.80;1.00;;;;;;10442152;28;20228;-81
2022/05/04 10:17:07;;;;;;;0.88;0.65;;;20.90;1.00;;;;;;10419845;28;20236;-82
2022/05/04 10:22:36;;;;;;;1.00;0.90;;;21.70;1.00;;;;;;10406968;28;20383;-79
2022/05/04 10:28:15;;;;;;;3.75;0.80;;;22.30;1.00;;;;;;10405747;28;20454;-84
2022/05/04 10:33:37;;;;;;;2.05;1.00;;;22.10;1.00;;;;;;10432017;28;20514;-80
2022/05/04 10:39:22;;;;;;;1.23;0.73;;;22.00;1.00;;;;;;10433302;28;20243;-82
2022/05/04 10:44:53;;;;;;;5.78;1.85;;;22.30;1.00;;;;;;10450254;28;20379;-80
2022/05/04 10:50:18;;;;;;;4.15;1.20;;;22.30;1.00;;;;;;10381705;28;20201;-79
2022/05/04 10:55:39;;;;;;;1.25;0.70;;;22.30;1.00;;;;;;10423965;28;20450;-79
2022/05/04 11:01:06;;;;;;;2.25;0.93;;;22.00;1.00;;;;;;10432059;28;20296;-79
2022/05/04 11:06:29;;;;;;;0.73;0.63;;;22.40;1.00;;;;;;10432791;28;20212;-78
2022/05/04 11:11:55;;;;;;;2.92;1.55;;;22.20;1.00;;;;;;10445952;28;20204;-81
2022/05/04 11:17:17;;;;;;;2.47;1.10;;;22.10;1.00;;;;;;10399937;28;20239;-81
2022/05/04 11:22:39;;;;;;;1.85;1.13;;;22.10;1.00;;;;;;10414493;28;20402;-80
2022/05/04 11:28:09;;;;;;;2.15;1.02;;;21.80;1.00;;;;;;10432950;28;20397;-80
2022/05/04 11:33:31;;;;;;;6.40;2.40;;;22.00;1.00;;;;;;10416798;28;20271;-79
2022/05/04 11:38:52;;;;;;;1.65;0.90;;;22.10;1.00;;;;;;10431107;28;20561;-80
2022/05/04 11:44:13;;;;;;;1.73;0.95;;;21.60;1.00;;;;;;10428135;28;20197;-80
2022/05/04 11:49:35;;;;;;;2.60;1.08;;;21.50;1.00;;;;;;10418267;28;20435;-79
2022/05/04 11:55:01;;;;;;;3.67;2.38;;;21.70;1.00;;;;;;10400876;28;20248;-83
2022/05/04 12:00:24;;;;;;;1.48;0.80;;;21.60;1.00;;;;;;10405712;28;20213;-79
2022/05/04 12:05:46;;;;;;;4.35;1.02;;;21.30;1.00;;;;;;10396826;28;20204;-80
2022/05/04 12:11:08;;;;;;;2.33;1.10;;;21.50;1.00;;;;;;10423985;28;20494;-79
2022/05/04 12:16:30;;;;;;;7.72;1.70;;;21.80;1.00;;;;;;10446307;28;20232;-80
2022/05/04 12:21:53;;;;;;;2.55;1.00;;;21.80;1.00;;;;;;10397451;28;20201;-79
2022/05/04 12:27:15;;;;;;;1.65;1.13;;;21.60;1.00;;;;;;10389667;28;20211;-81
2022/05/04 12:38:19;;;;;;;5.95;1.80;;;21.40;1.00;;;;;;10390298;28;20460;-80
2022/05/04 12:43:40;;;;;;;2.50;1.10;;;21.30;1.00;;;;;;10389482;28;20373;-78
2022/05/04 12:49:02;;;;;;;2.08;1.20;;;21.40;1.00;;;;;;10390054;28;20220;-83
2022/05/04 12:54:24;;;;;;;7.70;1.60;;;21.00;1.00;;;;;;10410371;28;20247;-78
2022/05/04 12:59:45;;;;;;;4.53;2.20;;;20.70;1.00;;;;;;10423593;28;20204;-91
2022/05/04 13:05:07;;;;;;;6.70;1.40;;;20.70;1.00;;;;;;10438113;28;20246;-79
2022/05/04 13:10:29;;;;;;;2.55;1.48;;;20.60;1.00;;;;;;10425561;28;20203;-77
2022/05/04 13:15:51;;;;;;;2.38;1.15;;;20.60;1.00;;;;;;10480911;28;20242;-79
2022/05/04 13:21:12;;;;;;;3.38;1.08;;;20.30;1.00;;;;;;10405413;28;20193;-76
2022/05/04 13:26:33;;;;;;;1.60;0.90;;;20.30;1.00;;;;;;10397195;28;20243;-77
2022/05/04 13:31:55;;;;;;;4.38;1.88;;;20.20;1.00;;;;;;10395026;28;20228;-81
2022/05/04 13:37:17;;;;;;;6.38;1.10;;;20.10;1.00;;;;;;10435312;28;20220;-82
2022/05/04 13:42:40;;;;;;;4.22;1.17;;;20.00;1.00;;;;;;10437670;28;20215;-78
2022/05/04 13:48:02;;;;;;;2.30;1.38;;;20.00;1.00;;;;;;10417511;28;20212;-87
2022/05/04 13:53:23;;;;;;;4.35;1.42;;;19.80;1.00;;;;;;10408383;28;20290;-78
2022/05/04 13:58:44;;;;;;;2.65;1.27;;;19.70;1.00;;;;;;10435428;28;20633;-78
2022/05/04 14:04:06;;;;;;;3.25;1.38;;;19.30;1.00;;;;;;10435012;28;20196;-77
2022/05/04 14:09:27;;;;;;;1.75;0.95;;;19.20;1.00;;;;;;10433979;28;20193;-77
2022/05/04 14:15:04;;;;;;;2.20;1.55;;;18.90;1.00;;;;;;10473086;28;20227;-76
2022/05/04 14:20:25;;;;;;;1.67;1.00;;;19.00;1.00;;;;;;10474894;28;20204;-78
2022/05/04 14:25:48;;;;;;;5.43;1.13;;;18.70;1.00;;;;;;10476558;28;20520;-77
2022/05/04 14:31:09;;;;;;;5.65;1.25;;;18.30;1.00;;;;;;10419656;28;20201;-77
2022/05/04 14:36:31;;;;;;;1.95;1.10;;;18.30;1.00;;;;;;10416222;28;20232;-77
2022/05/04 14:41:53;;;;;;;2.97;1.02;;;18.00;1.00;;;;;;10433997;28;20194;-78
2022/05/04 14:47:14;;;;;;;1.60;1.50;;;17.80;1.00;;;;;;10419518;28;20218;-78
2022/05/04 14:52:35;;;;;;;3.47;1.15;;;17.80;1.00;;;;;;10432451;28;20236;-78
2022/05/04 14:57:57;;;;;;;2.65;1.27;;;17.60;1.00;;;;;;10432534;28;20307;-77
2022/05/04 15:08:59;;;;;;;8.50;6.35;;;17.80;1.00;;;;;;10390829;28;20515;-77
2022/05/04 15:14:21;;;;;;;1.85;1.10;;;17.70;1.00;;;;;;10429731;28;20220;-77
2022/05/04 15:19:42;;;;;;;9.23;2.97;;;17.50;1.00;;;;;;10430757;28;20499;-81
2022/05/04 15:25:04;;;;;;;5.18;3.35;;;17.40;1.00;;;;;;10420110;28;20222;-77
2022/05/04 15:30:27;;;;;;;3.67;1.42;;;17.10;1.00;;;;;;10436780;28;20503;-76
2022/05/04 15:35:48;;;;;;;1.50;1.38;;;17.00;1.00;;;;;;10436657;28;20227;-78
2022/05/04 15:41:11;;;;;;;2.55;1.10;;;16.90;1.00;;;;;;10436285;28;20199;-78
2022/05/04 15:46:33;;;;;;;5.18;1.55;;;17.00;1.00;;;;;;10436190;28;20515;-78
2022/05/04 15:51:54;;;;;;;2.92;1.23;;;16.80;1.00;;;;;;10436939;28;20228;-78
2022/05/04 15:57:15;;;;;;;5.57;2.08;;;16.70;1.00;;;;;;10435772;28;20258;-78
2022/05/04 16:08:17;;;;;;;5.75;1.55;;;16.60;1.00;;;;;;10433492;28;20249;-77
2022/05/04 16:13:39;;;;;;;3.47;1.30;;;16.50;1.00;;;;;;10465056;28;20221;-78
2022/05/04 16:24:40;;;;;;;2.55;1.30;;;16.40;1.00;;;;;;10477526;28;20200;-78
2022/05/04 16:30:01;;;;;;;2.72;1.80;;;16.10;1.00;;;;;;10480161;28;20193;-78
2022/05/04 16:35:23;;;;;;;3.13;1.80;;;16.20;1.00;;;;;;10456642;28;20234;-78
2022/05/04 16:40:47;;;;;;;2.90;1.60;;;16.20;1.00;;;;;;10485542;28;20210;-78
2022/05/04 16:46:08;;;;;;;3.20;1.60;;;16.10;1.00;;;;;;10485301;28;20456;-78
2022/05/04 16:51:30;;;;;;;3.47;1.58;;;16.00;1.00;;;;;;10485147;28;20540;-79
2022/05/04 16:56:51;;;;;;;2.67;2.10;;;15.90;1.00;;;;;;10437576;28;20234;-78
2022/05/04 17:02:12;;;;;;;6.43;2.88;;;15.80;1.00;;;;;;10443609;28;20414;-78
2022/05/04 17:07:33;;;;;;;7.30;3.95;;;15.80;1.00;;;;;;10403098;28;20287;-78
2022/05/04 17:12:55;;;;;;;4.43;2.58;;;15.70;1.00;;;;;;10446320;28;20492;-78
2022/05/04 17:18:16;;;;;;;6.63;2.00;;;15.60;1.00;;;;;;10482921;28;20241;-78
2022/05/04 17:23:37;;;;;;;3.92;2.00;;;15.40;1.00;;;;;;10483869;28;20185;-80
2022/05/04 17:28:58;;;;;;;5.43;2.95;;;15.40;1.00;;;;;;10483136;28;20228;-78
2022/05/04 17:39:59;;;;;;;6.40;3.33;;;15.10;1.00;;;;;;10483401;28;20241;-79
2022/05/04 17:45:20;;;;;;;8.60;3.47;;;14.90;1.00;;;;;;10483675;28;20195;-78
2022/05/04 17:50:42;;;;;;;9.95;4.15;;;14.70;1.00;;;;;;10484888;28;20239;-79
2022/05/04 17:56:03;;;;;;;8.10;4.35;;;14.70;1.00;;;;;;10446752;28;20265;-80
2022/05/04 18:07:06;;;;;;;7.60;4.38;;;14.30;1.00;;;;;;10439831;28;20229;-78
2022/05/04 18:12:27;;;;;;;6.75;3.95;;;14.20;1.00;;;;;;10459633;28;20268;-79
2022/05/04 18:17:48;;;;;;;10.88;4.22;;;14.10;1.00;;;;;;10482155;28;20252;-79
2022/05/04 18:23:10;;;;;;;9.50;4.60;;;13.90;1.00;;;;;;10482006;28;20193;-79
2022/05/04 18:28:31;;;;;;;11.10;5.65;;;13.60;1.00;;;;;;10466836;28;20193;-79
2022/05/04 18:33:53;;;;;;;21.45;8.35;;;13.30;1.00;;;;;;10465791;28;20361;-81
2022/05/04 18:39:14;;;;;;;14.55;6.78;;;13.20;1.00;;;;;;10481053;28;20223;-81
2022/05/04 18:44:35;;;;;;;13.95;5.53;;;13.00;1.00;;;;;;10481063;28;20208;-80
2022/05/04 18:49:56;;;;;;;10.43;5.53;;;12.90;1.00;;;;;;10480823;28;20193;-78
2022/05/04 18:55:19;;;;;;;19.05;8.43;;;12.70;1.00;;;;;;10450294;28;20252;-80
2022/05/04 19:00:40;;;;;;;16.40;7.80;;;12.60;1.00;;;;;;10439023;28;20190;-78
2022/05/04 19:06:02;;;;;;;12.90;6.03;;;12.50;1.00;;;;;;10438229;28;20239;-78
2022/05/04 19:11:23;;;;;;;9.73;4.95;;;12.40;1.00;;;;;;10448230;28;20436;-78
2022/05/04 19:16:44;;;;;;;10.98;4.57;;;12.20;1.00;;;;;;10478753;28;20225;-78
2022/05/04 19:22:06;;;;;;;13.27;7.07;;;12.00;1.00;;;;;;10464371;28;20196;-78
2022/05/04 19:27:27;;;;;;;11.80;6.20;;;11.90;1.00;;;;;;10479245;28;20196;-77
2022/05/04 19:32:49;;;;;;;7.80;4.47;;;11.70;1.00;;;;;;10477781;28;20491;-78
2022/05/04 19:38:14;;;;;;;7.77;4.73;;;11.60;1.00;;;;;;10478053;28;20272;-80
2022/05/04 19:43:35;;;;;;;10.47;5.27;;;11.50;1.00;;;;;;10463837;28;20232;-77
2022/05/04 19:48:57;;;;;;;8.85;5.13;;;11.40;1.00;;;;;;10478469;28;20199;-79
2022/05/04 19:54:18;;;;;;;9.57;5.43;;;11.40;1.00;;;;;;10456442;28;20231;-79
2022/05/04 19:59:39;;;;;;;11.23;6.05;;;11.30;1.00;;;;;;10435963;28;20563;-79
2022/05/04 20:05:01;;;;;;;12.77;7.45;;;11.20;1.00;;;;;;10436263;28;20212;-78
2022/05/04 20:10:22;;;;;;;17.63;7.82;;;11.20;1.00;;;;;;10423645;28;20215;-77
2022/05/04 20:15:44;;;;;;;19.97;7.43;;;11.20;1.00;;;;;;10476970;28;20221;-77
2022/05/04 20:21:05;;;;;;;15.45;5.93;;;11.10;1.00;;;;;;10463259;28;20205;-77
2022/05/04 20:26:26;;;;;;;10.65;5.95;;;11.10;1.00;;;;;;10462753;28;20204;-77
2022/05/04 20:31:47;;;;;;;14.77;7.45;;;11.10;1.00;;;;;;10476237;28;20232;-77
2022/05/04 20:43:05;;;;;;;13.53;7.53;;;11.10;1.00;;;;;;10476548;28;20196;-78
2022/05/04 20:48:26;;;;;;;14.90;7.90;;;11.10;1.00;;;;;;10476036;28;20516;-78
2022/05/04 20:53:47;;;;;;;15.43;7.28;;;11.00;1.00;;;;;;10460514;28;20231;-78
2022/05/04 20:59:11;;;;;;;13.45;5.38;;;11.00;1.00;;;;;;10434411;28;20250;-77
2022/05/04 21:04:33;;;;;;;6.65;3.67;;;10.90;1.00;;;;;;10435474;28;20201;-77
2022/05/04 21:09:54;;;;;;;5.43;3.42;;;10.90;1.00;;;;;;10434989;28;20188;-77
2022/05/04 21:15:16;;;;;;;8.33;3.77;;;10.80;1.00;;;;;;10476028;28;20290;-77
2022/05/04 21:20:37;;;;;;;9.90;3.13;;;10.80;1.00;;;;;;10483482;28;20277;-78
2022/05/04 21:25:59;;;;;;;8.52;3.97;;;10.70;1.00;;;;;;10483190;28;20189;-77
2022/05/04 21:31:21;;;;;;;10.63;4.60;;;10.70;1.00;;;;;;10482905;28;20534;-77
2022/05/04 21:36:43;;;;;;;9.20;4.68;;;10.60;1.00;;;;;;10468278;28;20274;-77
2022/05/04 21:42:05;;;;;;;8.03;4.27;;;10.60;1.00;;;;;;10483464;28;20195;-77
2022/05/04 21:47:26;;;;;;;10.77;4.57;;;10.60;1.00;;;;;;10481963;28;20223;-77
2022/05/04 21:52:47;;;;;;;9.17;4.53;;;10.40;1.00;;;;;;10473145;28;20258;-78
2022/05/04 21:58:09;;;;;;;9.60;4.47;;;10.40;1.00;;;;;;10425940;28;20227;-78
2022/05/04 22:03:30;;;;;;;10.23;4.60;;;10.30;1.00;;;;;;10440303;28;20271;-77
2022/05/04 22:08:52;;;;;;;8.27;4.13;;;10.30;1.00;;;;;;10400149;28;20264;-77
2022/05/04 22:14:13;;;;;;;6.30;3.60;;;10.20;1.00;;;;;;10465302;28;20406;-77
2022/05/04 22:19:35;;;;;;;8.87;4.07;;;10.20;1.00;;;;;;10481809;28;20224;-78
2022/05/04 22:24:56;;;;;;;10.50;4.50;;;10.20;1.00;;;;;;10481625;28;20188;-77
2022/05/04 22:30:18;;;;;;;6.87;3.90;;;10.20;1.00;;;;;;10480558;28;20203;-77
2022/05/04 22:35:41;;;;;;;5.87;3.47;;;10.10;1.00;;;;;;10480270;28;20227;-77
2022/05/04 22:41:03;;;;;;;7.03;3.27;;;10.10;1.00;;;;;;10480816;28;20196;-78
2022/05/04 22:46:24;;;;;;;9.70;4.10;;;10.20;1.00;;;;;;10480708;28;20483;-78
2022/05/04 22:51:45;;;;;;;8.43;4.20;;;10.20;1.00;;;;;;10480360;28;20231;-80
2022/05/04 22:57:07;;;;;;;8.88;4.03;;;10.20;1.00;;;;;;10435539;28;20247;-78
2022/05/04 23:02:28;;;;;;;7.85;4.10;;;10.20;1.00;;;;;;10439119;28;20188;-77
2022/05/04 23:07:49;;;;;;;8.02;3.92;;;10.20;1.00;;;;;;10438619;28;20231;-77
2022/05/04 23:13:10;;;;;;;6.95;4.50;;;10.20;1.00;;;;;;10447851;28;20200;-77
2022/05/04 23:18:33;;;;;;;8.55;3.90;;;10.30;1.00;;;;;;10464650;28;20257;-79
2022/05/04 23:23:54;;;;;;;5.88;3.42;;;10.30;1.00;;;;;;10479339;28;20230;-79
2022/05/04 23:29:16;;;;;;;7.88;3.95;;;10.40;1.00;;;;;;10479244;28;20186;-77
2022/05/04 23:34:37;;;;;;;6.85;4.07;;;10.40;1.00;;;;;;10479111;28;20192;-77
2022/05/04 23:39:59;;;;;;;10.23;3.70;;;10.40;1.00;;;;;;10478293;28;20198;-78
2022/05/04 23:45:20;;;;;;;8.55;4.47;;;10.40;1.00;;;;;;10478796;28;20245;-77
2022/05/04 23:50:41;;;;;;;7.93;3.80;;;10.40;1.00;;;;;;10478298;28;20302;-79
2022/05/04 23:56:03;;;;;;;9.75;3.72;;;10.40;1.00;;;;;;10441673;28;20228;-78
